createdAt,value
2018-05-17T00:01:37.384Z,11.47
2018-05-17T00:04:04.839Z,10.23
2018-05-17T00:06:32.293Z,11.70
2018-05-17T00:09:00.593Z,10.60
2018-05-17T00:11:28.063Z,10.10
2018-05-17T00:13:55.517Z,10.03
2018-05-17T00:16:22.989Z,9.90
2018-05-17T00:18:50.423Z,11.07
2018-05-17T00:21:17.862Z,11.50
2018-05-17T00:23:45.323Z,11.70
2018-05-17T00:26:12.769Z,11.47
2018-05-17T00:28:41.097Z,12.10
2018-05-17T00:31:08.530Z,11.52
2018-05-17T00:33:35.970Z,10.57
2018-05-17T00:36:03.419Z,11.80
2018-05-17T00:38:30.870Z,11.83
2018-05-17T00:40:59.090Z,10.97
2018-05-17T00:43:26.522Z,11.10
2018-05-17T00:45:53.971Z,10.17
2018-05-17T00:48:21.491Z,10.10
2018-05-17T00:50:48.891Z,10.63
2018-05-17T00:53:34.996Z,10.23
2018-05-17T00:56:02.433Z,9.73
2018-05-17T00:58:29.872Z,10.20
2018-05-17T01:00:58.100Z,10.70
2018-05-17T01:03:25.530Z,11.15
2018-05-17T01:05:52.986Z,10.70
2018-05-17T01:08:20.429Z,10.47
2018-05-17T01:10:48.634Z,9.83
2018-05-17T01:13:16.092Z,9.93
2018-05-17T01:15:43.554Z,9.20
2018-05-17T01:18:11.027Z,10.20
2018-05-17T01:20:39.455Z,9.77
2018-05-17T01:23:07.659Z,9.70
2018-05-17T01:25:35.102Z,10.10
2018-05-17T01:28:02.559Z,10.43
2018-05-17T01:30:30.008Z,11.37
2018-05-17T01:32:58.210Z,10.40
2018-05-17T01:35:25.661Z,11.43
2018-05-17T01:38:05.114Z,10.77
2018-05-17T01:40:32.560Z,10.80
2018-05-17T01:43:00.015Z,12.00
2018-05-17T01:45:27.472Z,12.03
2018-05-17T01:47:54.933Z,12.00
2018-05-17T01:50:22.366Z,11.07
2018-05-17T01:52:49.833Z,11.03
2018-05-17T01:55:17.282Z,12.57
2018-05-17T01:57:45.483Z,12.57
2018-05-17T02:00:12.948Z,12.97
2018-05-17T02:02:40.392Z,13.27
2018-05-17T02:05:07.939Z,14.60
2018-05-17T02:07:36.443Z,14.23
2018-05-17T02:10:03.875Z,14.17
2018-05-17T02:12:31.315Z,14.73
2018-05-17T02:14:59.508Z,13.07
2018-05-17T02:17:27.005Z,13.53
2018-05-17T02:19:54.447Z,13.55
2018-05-17T02:22:21.971Z,14.70
2018-05-17T02:24:49.338Z,15.63
2018-05-17T02:27:16.795Z,17.50
2018-05-17T02:29:44.244Z,16.70
2018-05-17T02:32:11.695Z,14.90
2018-05-17T02:34:39.997Z,15.97
2018-05-17T02:37:07.426Z,18.63
2018-05-17T02:39:35.649Z,17.27
2018-05-17T02:42:03.072Z,18.08
2018-05-17T02:44:30.527Z,18.03
2018-05-17T02:46:57.982Z,17.37
2018-05-17T02:49:26.204Z,17.30
2018-05-17T02:51:53.651Z,18.52
2018-05-17T02:54:26.985Z,19.63
2018-05-17T02:56:54.428Z,17.53
2018-05-17T02:59:21.872Z,19.00
2018-05-17T03:01:49.304Z,19.30
2018-05-17T03:04:16.767Z,16.83
2018-05-17T03:06:44.228Z,18.80
2018-05-17T03:09:11.683Z,17.70
2018-05-17T03:11:39.124Z,16.80
2018-05-17T03:14:07.507Z,17.80
2018-05-17T03:16:34.987Z,17.50
2018-05-17T03:19:02.426Z,17.60
2018-05-17T03:21:29.896Z,16.90
2018-05-17T03:23:57.346Z,16.50
2018-05-17T03:26:24.777Z,15.90
2018-05-17T03:28:52.232Z,16.33
2018-05-17T03:31:19.666Z,16.43
2018-05-17T03:33:47.896Z,17.73
2018-05-17T03:36:15.338Z,17.60
2018-05-17T03:38:42.813Z,17.43
2018-05-17T03:41:10.280Z,16.33
2018-05-17T03:43:37.721Z,16.93
2018-05-17T03:46:05.186Z,18.10
2018-05-17T03:48:32.641Z,16.85
2018-05-17T03:51:00.127Z,16.30
2018-05-17T03:53:27.555Z,17.83
2018-05-17T03:55:55.012Z,16.73
2018-05-17T03:58:22.478Z,17.90
2018-05-17T04:01:01.775Z,16.37
2018-05-17T04:03:41.227Z,16.70
2018-05-17T04:06:20.555Z,17.13
2018-05-17T04:08:47.989Z,17.85
2018-05-17T04:11:16.209Z,17.97
2018-05-17T04:13:43.642Z,17.80
2018-05-17T04:16:11.103Z,16.77
2018-05-17T04:18:39.510Z,17.27
2018-05-17T04:21:06.968Z,16.80
2018-05-17T04:23:44.690Z,16.53
2018-05-17T04:26:12.122Z,16.10
2018-05-17T04:28:39.566Z,16.07
2018-05-17T04:31:07.027Z,16.00
2018-05-17T04:33:34.467Z,16.53
2018-05-17T04:36:01.932Z,16.13
2018-05-17T04:38:29.356Z,17.67
2018-05-17T04:40:57.569Z,19.93
2018-05-17T04:43:25.742Z,19.67
2018-05-17T04:45:53.212Z,19.47
2018-05-17T04:48:20.645Z,18.10
2018-05-17T04:50:48.092Z,19.60
2018-05-17T04:53:15.539Z,19.97
2018-05-17T04:55:43.756Z,21.73
2018-05-17T04:58:11.186Z,22.43
2018-05-17T05:00:38.638Z,22.67
2018-05-17T05:03:06.088Z,23.23
2018-05-17T05:05:34.309Z,24.43
2018-05-17T05:08:02.529Z,24.70
2018-05-17T05:10:30.748Z,25.00
2018-05-17T05:12:58.195Z,26.53
2018-05-17T05:15:25.634Z,27.60
2018-05-17T05:17:53.079Z,26.80
2018-05-17T05:20:21.287Z,21.50
2018-05-17T05:22:48.743Z,27.73
2018-05-17T05:25:16.302Z,26.25
2018-05-17T05:27:44.432Z,25.40
2018-05-17T05:30:12.651Z,29.87
2018-05-17T05:32:40.100Z,30.63
2018-05-17T05:35:07.576Z,31.90
2018-05-17T05:37:35.058Z,31.97
2018-05-17T05:40:02.473Z,31.70
2018-05-17T05:42:29.937Z,34.93
2018-05-17T05:44:57.389Z,31.63
2018-05-17T05:47:24.858Z,36.57
2018-05-17T05:49:52.327Z,36.37
2018-05-17T05:52:19.775Z,37.27
2018-05-17T05:54:47.221Z,35.20
2018-05-17T05:57:14.666Z,38.70
2018-05-17T05:59:42.108Z,33.83
2018-05-17T06:02:10.311Z,39.20
2018-05-17T06:04:37.759Z,38.60
2018-05-17T06:07:05.213Z,39.93
2018-05-17T06:09:32.663Z,39.97
2018-05-17T06:12:00.113Z,40.17
2018-05-17T06:14:28.315Z,42.03
2018-05-17T06:16:55.780Z,41.23
2018-05-17T06:19:23.233Z,41.57
2018-05-17T06:21:50.671Z,42.67
2018-05-17T06:24:18.115Z,43.10
2018-05-17T06:26:46.319Z,42.10
2018-05-17T06:29:13.770Z,39.67
2018-05-17T06:31:41.217Z,36.37
2018-05-17T06:34:08.687Z,33.37
2018-05-17T06:36:36.132Z,34.67
2018-05-17T06:39:03.588Z,36.03
2018-05-17T06:41:31.029Z,32.00
2018-05-17T06:43:59.299Z,28.17
2018-05-17T06:46:26.699Z,25.63
2018-05-17T06:48:54.140Z,25.57
2018-05-17T06:51:21.578Z,22.30
2018-05-17T06:53:49.783Z,21.70
2018-05-17T06:56:17.223Z,21.50
2018-05-17T06:58:44.723Z,15.40
2018-05-17T07:01:12.258Z,13.80
2018-05-17T07:03:39.633Z,13.47
2018-05-17T07:06:07.070Z,13.82
2018-05-17T07:08:34.533Z,16.40
2018-05-17T07:11:01.980Z,15.70
2018-05-17T07:13:29.420Z,15.20
2018-05-17T07:15:56.869Z,16.13
2018-05-17T07:18:25.207Z,15.67
2018-05-17T07:20:52.548Z,15.03
2018-05-17T07:23:20.005Z,13.80
2018-05-17T07:25:47.470Z,15.77
2018-05-17T07:28:14.928Z,14.32
2018-05-17T07:30:42.375Z,14.87
2018-05-17T07:33:09.826Z,14.30
2018-05-17T07:35:37.271Z,13.20
2018-05-17T07:38:04.710Z,12.57
2018-05-17T07:40:32.172Z,11.82
2018-05-17T07:42:59.625Z,10.50
2018-05-17T07:45:27.828Z,10.40
2018-05-17T07:47:55.276Z,10.03
2018-05-17T07:50:22.734Z,10.97
2018-05-17T07:52:50.175Z,16.03
2018-05-17T07:55:17.628Z,12.50
2018-05-17T07:57:45.067Z,12.77
2018-05-17T08:00:13.290Z,13.93
2018-05-17T08:02:40.728Z,15.15
2018-05-17T08:05:10.328Z,13.83
2018-05-17T08:07:37.799Z,16.03
2018-05-17T08:10:05.246Z,14.80
2018-05-17T08:12:32.694Z,13.85
2018-05-17T08:15:00.138Z,12.40
2018-05-17T08:17:28.350Z,10.90
2018-05-17T08:19:55.793Z,10.50
2018-05-17T08:22:23.235Z,11.27
2018-05-17T08:24:51.454Z,12.23
2018-05-17T08:27:18.891Z,12.00
2018-05-17T08:29:46.340Z,13.10
2018-05-17T08:32:13.782Z,13.40
2018-05-17T08:34:42.938Z,15.10
2018-05-17T08:37:10.376Z,17.80
2018-05-17T08:39:37.836Z,18.43
2018-05-17T08:42:05.286Z,18.17
2018-05-17T08:44:32.730Z,19.57
2018-05-17T08:47:00.178Z,20.12
2018-05-17T08:49:27.634Z,21.50
2018-05-17T08:51:55.063Z,21.27
2018-05-17T08:54:23.372Z,23.13
2018-05-17T08:56:50.725Z,27.30
2018-05-17T08:59:18.203Z,25.33
2018-05-17T09:01:45.638Z,25.57
2018-05-17T09:04:13.093Z,25.97
2018-05-17T09:06:40.549Z,27.97
2018-05-17T09:09:07.982Z,27.65
2018-05-17T09:11:36.227Z,26.90
2018-05-17T09:14:03.658Z,27.48
2018-05-17T09:16:31.130Z,27.20
2018-05-17T09:18:58.579Z,27.60
2018-05-17T09:21:26.033Z,26.87
2018-05-17T09:23:53.480Z,28.40
2018-05-17T09:26:20.936Z,29.03
2018-05-17T09:28:48.386Z,27.50
2018-05-17T09:31:15.834Z,27.80
2018-05-17T09:33:43.287Z,29.97
2018-05-17T09:36:10.731Z,26.70
2018-05-17T09:38:38.944Z,27.50
2018-05-17T09:41:06.397Z,29.57
2018-05-17T09:43:33.875Z,28.37
2018-05-17T09:46:01.335Z,30.70
2018-05-17T09:48:28.775Z,29.83
2018-05-17T09:50:56.199Z,29.90
2018-05-17T09:53:24.403Z,29.43
2018-05-17T09:55:51.862Z,29.90
2018-05-17T09:58:19.299Z,29.20
2018-05-17T10:00:48.541Z,31.93
2018-05-17T10:03:15.988Z,30.00
2018-05-17T10:05:43.447Z,29.45
2018-05-17T10:08:10.886Z,27.67
2018-05-17T10:10:38.342Z,25.17
2018-05-17T10:13:05.804Z,26.93
2018-05-17T10:15:33.266Z,27.60
2018-05-17T10:18:00.706Z,27.53
2018-05-17T10:20:28.140Z,26.43
2018-05-17T10:22:56.371Z,27.30
2018-05-17T10:25:23.826Z,27.10
2018-05-17T10:27:51.271Z,27.37
2018-05-17T10:30:18.709Z,26.63
2018-05-17T10:32:46.159Z,26.40
2018-05-17T10:35:14.380Z,27.03
2018-05-17T10:37:41.830Z,28.90
2018-05-17T10:40:09.301Z,28.03
2018-05-17T10:42:36.758Z,28.33
2018-05-17T10:45:04.203Z,28.33
2018-05-17T10:47:31.673Z,27.35
2018-05-17T10:49:59.112Z,28.15
2018-05-17T10:52:26.584Z,26.10
2018-05-17T10:54:54.014Z,28.20
2018-05-17T10:57:21.468Z,27.80
2018-05-17T10:59:48.908Z,24.17
2018-05-17T11:02:16.352Z,27.83
2018-05-17T11:04:44.571Z,26.00
2018-05-17T11:07:12.055Z,28.27
2018-05-17T11:09:41.003Z,27.73
2018-05-17T11:12:08.662Z,26.83
2018-05-17T11:14:36.059Z,28.10
2018-05-17T11:17:03.492Z,26.33
2018-05-17T11:19:30.938Z,26.80
2018-05-17T11:22:00.336Z,26.10
2018-05-17T11:24:27.793Z,27.47
2018-05-17T11:26:55.242Z,25.47
2018-05-17T11:29:22.703Z,25.53
2018-05-17T11:31:50.147Z,27.03
2018-05-17T11:34:18.346Z,26.10
2018-05-17T11:36:45.792Z,26.27
2018-05-17T11:39:13.238Z,27.83
2018-05-17T11:41:40.676Z,26.30
2018-05-17T11:44:09.841Z,26.80
2018-05-17T11:46:37.271Z,24.57
2018-05-17T11:49:04.724Z,25.73
2018-05-17T11:51:32.200Z,25.33
2018-05-17T11:54:00.404Z,23.50
2018-05-17T11:56:27.847Z,25.83
2018-05-17T11:58:55.302Z,25.67
2018-05-17T12:01:22.796Z,23.40
2018-05-17T12:03:50.190Z,22.77
2018-05-17T12:06:18.664Z,23.80
2018-05-17T12:08:46.094Z,20.33
2018-05-17T12:11:18.097Z,22.50
2018-05-17T12:13:45.542Z,22.00
2018-05-17T12:16:12.978Z,21.83
2018-05-17T12:18:40.424Z,18.65
2018-05-17T12:21:08.628Z,20.27
2018-05-17T12:23:36.087Z,18.87
2018-05-17T12:26:03.511Z,20.87
2018-05-17T12:28:32.448Z,19.10
2018-05-17T12:30:59.885Z,19.87
2018-05-17T12:33:27.339Z,18.85
2018-05-17T12:35:54.779Z,21.73
2018-05-17T12:38:23.014Z,19.13
2018-05-17T12:40:50.467Z,23.27
2018-05-17T12:43:17.918Z,21.07
2018-05-17T12:45:45.376Z,20.53
2018-05-17T12:48:12.839Z,19.83
2018-05-17T12:50:40.279Z,20.97
2018-05-17T12:53:07.733Z,21.03
2018-05-17T12:55:35.208Z,19.87
2018-05-17T12:58:02.647Z,18.37
2018-05-17T13:00:30.106Z,17.23
2018-05-17T13:02:57.547Z,17.17
2018-05-17T13:05:25.175Z,18.70
2018-05-17T13:07:52.614Z,17.93
2018-05-17T13:10:20.063Z,17.70
2018-05-17T13:12:47.503Z,17.37
2018-05-17T13:15:14.960Z,18.70
2018-05-17T13:17:42.396Z,17.67
2018-05-17T13:20:09.841Z,16.20
2018-05-17T13:22:37.279Z,16.80
2018-05-17T13:25:05.515Z,16.53
2018-05-17T13:27:32.959Z,18.13
2018-05-17T13:30:00.416Z,17.10
2018-05-17T13:32:27.862Z,18.60
2018-05-17T13:34:55.303Z,19.13
2018-05-17T13:37:22.820Z,20.00
2018-05-17T13:39:50.976Z,18.90
2018-05-17T13:42:18.423Z,17.80
2018-05-17T13:44:45.868Z,18.57
2018-05-17T13:47:13.324Z,18.17
2018-05-17T13:49:40.780Z,18.90
2018-05-17T13:52:08.238Z,18.80
2018-05-17T13:54:35.683Z,18.93
2018-05-17T13:57:03.154Z,20.77
2018-05-17T13:59:31.377Z,19.35
2018-05-17T14:01:58.838Z,19.30
2018-05-17T14:04:26.344Z,18.53
2018-05-17T14:06:53.856Z,19.80
2018-05-17T14:09:21.259Z,20.20
2018-05-17T14:11:48.699Z,19.97
2018-05-17T14:14:16.132Z,19.90
2018-05-17T14:16:44.349Z,21.20
2018-05-17T14:19:11.796Z,19.30
2018-05-17T14:21:39.241Z,19.90
2018-05-17T14:24:06.687Z,20.30
2018-05-17T14:26:34.917Z,23.27
2018-05-17T14:29:02.350Z,21.00
2018-05-17T14:31:30.943Z,21.80
2018-05-17T14:33:58.402Z,21.60
2018-05-17T14:36:25.879Z,20.97
2018-05-17T14:38:54.124Z,20.00
2018-05-17T14:41:21.584Z,18.27
2018-05-17T14:43:49.042Z,18.52
2018-05-17T14:46:16.499Z,19.07
2018-05-17T14:48:43.940Z,20.13
2018-05-17T14:51:11.390Z,19.93
2018-05-17T14:53:38.840Z,19.10
2018-05-17T14:56:07.099Z,20.10
2018-05-17T14:58:34.523Z,18.97
2018-05-17T15:01:01.995Z,18.67
2018-05-17T15:03:29.433Z,19.70
2018-05-17T15:05:57.005Z,19.10
2018-05-17T15:08:24.456Z,18.80
2018-05-17T15:10:51.904Z,19.53
2018-05-17T15:13:19.358Z,18.10
2018-05-17T15:15:46.842Z,19.00
2018-05-17T15:18:14.285Z,20.30
2018-05-17T15:20:41.727Z,20.00
2018-05-17T15:23:09.199Z,18.63
2018-05-17T15:25:36.635Z,19.40
2018-05-17T15:28:04.098Z,19.02
2018-05-17T15:30:31.548Z,18.60
2018-05-17T15:32:58.998Z,18.80
2018-05-17T15:35:27.000Z,17.30
2018-05-17T15:37:54.435Z,17.60
2018-05-17T15:40:21.904Z,17.52
2018-05-17T15:42:49.352Z,16.00
2018-05-17T15:45:16.803Z,17.00
2018-05-17T15:47:44.262Z,15.87
2018-05-17T15:50:12.471Z,15.23
2018-05-17T15:52:39.920Z,13.93
2018-05-17T15:55:07.353Z,12.43
2018-05-17T15:57:34.823Z,12.20
2018-05-17T16:00:02.260Z,11.83
2018-05-17T16:02:29.823Z,11.60
2018-05-17T16:04:57.250Z,11.60
2018-05-17T16:07:25.471Z,12.48
2018-05-17T16:09:52.905Z,12.10
2018-05-17T16:12:20.368Z,11.67
2018-05-17T16:14:47.835Z,10.80
2018-05-17T16:17:15.275Z,11.60
2018-05-17T16:19:42.740Z,11.50
2018-05-17T16:22:10.187Z,10.27
2018-05-17T16:24:37.634Z,10.17
2018-05-17T16:27:05.837Z,9.53
2018-05-17T16:29:33.280Z,9.47
2018-05-17T16:32:00.733Z,10.10
2018-05-17T16:34:28.180Z,9.77
2018-05-17T16:36:55.634Z,9.05
2018-05-17T16:39:23.864Z,8.70
2018-05-17T16:41:51.315Z,9.13
2018-05-17T16:44:18.779Z,9.67
2018-05-17T16:46:46.219Z,9.68
2018-05-17T16:49:13.680Z,9.20
2018-05-17T16:51:41.121Z,9.47
2018-05-17T16:54:08.631Z,9.70
2018-05-17T16:56:35.994Z,10.93
2018-05-17T16:59:04.223Z,11.40
2018-05-17T17:01:32.198Z,10.55
2018-05-17T17:03:59.658Z,12.03
2018-05-17T17:06:27.091Z,11.40
2018-05-17T17:08:54.539Z,10.95
2018-05-17T17:11:21.984Z,10.57
2018-05-17T17:13:50.194Z,11.30
2018-05-17T17:16:17.635Z,11.03
2018-05-17T17:18:45.196Z,10.40
2018-05-17T17:21:12.638Z,11.70
2018-05-17T17:23:41.024Z,11.70
2018-05-17T17:26:08.453Z,10.80
2018-05-17T17:28:36.681Z,11.67
2018-05-17T17:31:04.136Z,11.45
2018-05-17T17:33:31.570Z,11.70
2018-05-17T17:35:59.036Z,13.10
2018-05-17T17:38:26.507Z,11.87
2018-05-17T17:40:53.984Z,13.70
2018-05-17T17:43:21.412Z,12.80
2018-05-17T17:45:48.867Z,13.23
2018-05-17T17:48:16.306Z,13.17
2018-05-17T17:50:43.746Z,13.83
2018-05-17T17:53:11.961Z,14.18
2018-05-17T17:55:39.430Z,16.07
2018-05-17T17:58:06.874Z,15.23
2018-05-17T18:00:34.315Z,14.80
2018-05-17T18:03:01.754Z,16.10
2018-05-17T18:05:30.086Z,15.93
2018-05-17T18:07:57.440Z,14.70
2018-05-17T18:10:24.890Z,15.80
2018-05-17T18:12:52.348Z,16.17
2018-05-17T18:15:19.787Z,14.80
2018-05-17T18:17:47.241Z,15.33
2018-05-17T18:20:14.678Z,14.23
2018-05-17T18:22:42.886Z,13.73
2018-05-17T18:25:10.328Z,14.03
2018-05-17T18:27:37.788Z,14.85
2018-05-17T18:30:05.248Z,13.73
2018-05-17T18:32:32.766Z,14.70
2018-05-17T18:35:00.167Z,14.83
2018-05-17T18:37:27.705Z,14.43
2018-05-17T18:39:55.136Z,14.20
2018-05-17T18:42:23.364Z,15.07
2018-05-17T18:44:50.912Z,13.53
2018-05-17T18:47:18.265Z,13.40
2018-05-17T18:49:45.733Z,14.00
2018-05-17T18:52:13.162Z,14.23
2018-05-17T18:54:42.393Z,13.13
2018-05-17T18:57:09.837Z,13.70
2018-05-17T18:59:38.433Z,13.40
2018-05-17T19:02:05.876Z,14.00
2018-05-17T19:04:33.331Z,17.87
2018-05-17T19:07:00.778Z,16.60
2018-05-17T19:09:28.219Z,16.47
2018-05-17T19:11:56.482Z,14.93
2018-05-17T19:14:23.918Z,14.50
2018-05-17T19:16:51.397Z,15.17
2018-05-17T19:19:18.831Z,15.60
2018-05-17T19:21:46.282Z,15.60
2018-05-17T19:24:14.494Z,14.90
2018-05-17T19:26:42.700Z,15.50
2018-05-17T19:29:10.157Z,15.90
2018-05-17T19:31:37.660Z,13.17
2018-05-17T19:34:05.062Z,13.82
2018-05-17T19:36:32.512Z,14.47
2018-05-17T19:39:00.716Z,13.70
2018-05-17T19:41:28.161Z,13.97
2018-05-17T19:43:55.610Z,13.90
2018-05-17T19:46:23.060Z,14.53
2018-05-17T19:48:51.292Z,14.83
2018-05-17T19:51:18.737Z,15.53
2018-05-17T19:53:46.195Z,15.90
2018-05-17T19:56:13.653Z,15.33
2018-05-17T19:58:41.095Z,15.80
2018-05-17T20:01:08.532Z,16.67
2018-05-17T20:03:35.973Z,15.40
2018-05-17T20:06:04.175Z,15.03
2018-05-17T20:08:31.622Z,15.37
2018-05-17T20:10:59.066Z,15.80
2018-05-17T20:13:27.287Z,15.47
2018-05-17T20:15:55.554Z,14.83
2018-05-17T20:18:23.016Z,13.45
2018-05-17T20:20:50.463Z,16.43
2018-05-17T20:23:17.928Z,14.07
2018-05-17T20:25:45.378Z,14.00
2018-05-17T20:28:12.940Z,16.30
2018-05-17T20:30:40.301Z,16.00
2018-05-17T20:33:07.747Z,15.53
2018-05-17T20:35:35.207Z,16.23
2018-05-17T20:38:02.656Z,16.10
2018-05-17T20:40:30.102Z,15.65
2018-05-17T20:42:57.551Z,14.75
2018-05-17T20:45:24.999Z,15.50
2018-05-17T20:47:53.203Z,16.47
2018-05-17T20:50:20.652Z,15.15
2018-05-17T20:52:48.091Z,15.50
2018-05-17T20:55:15.570Z,15.43
2018-05-17T20:57:43.003Z,15.97
2018-05-17T21:00:11.214Z,14.47
2018-05-17T21:02:38.659Z,15.33
2018-05-17T21:05:06.208Z,14.23
2018-05-17T21:07:33.654Z,14.63
2018-05-17T21:10:01.859Z,15.80
2018-05-17T21:12:29.308Z,15.80
2018-05-17T21:14:56.748Z,16.08
2018-05-17T21:17:24.198Z,15.83
2018-05-17T21:19:52.427Z,16.27
2018-05-17T21:22:19.904Z,16.43
2018-05-17T21:24:47.360Z,14.83
2018-05-17T21:27:14.887Z,15.80
2018-05-17T21:29:42.268Z,15.00
2018-05-17T21:32:11.233Z,16.90
2018-05-17T21:34:38.664Z,17.40
2018-05-17T21:37:06.120Z,16.35
2018-05-17T21:39:33.617Z,16.90
2018-05-17T21:42:01.011Z,15.00
2018-05-17T21:44:29.222Z,15.90
2018-05-17T21:46:56.710Z,14.43
2018-05-17T21:49:24.139Z,16.50
2018-05-17T21:51:51.592Z,16.50
2018-05-17T21:54:19.017Z,14.60
2018-05-17T21:56:47.236Z,17.53
2018-05-17T21:59:14.675Z,13.70
2018-05-17T22:01:42.114Z,14.23
2018-05-17T22:04:10.326Z,13.63
2018-05-17T22:06:37.788Z,14.13
2018-05-17T22:09:05.269Z,14.13
2018-05-17T22:11:32.719Z,15.43
2018-05-17T22:14:00.151Z,15.73
2018-05-17T22:16:27.597Z,14.97
2018-05-17T22:18:55.027Z,15.10
2018-05-17T22:21:23.269Z,14.80
2018-05-17T22:23:50.704Z,15.33
2018-05-17T22:26:18.156Z,15.40
2018-05-17T22:28:45.592Z,15.70
2018-05-17T22:31:13.047Z,15.23
2018-05-17T22:33:40.507Z,14.02
2018-05-17T22:36:08.839Z,14.77
2018-05-17T22:38:36.276Z,16.60
2018-05-17T22:41:03.724Z,15.47
2018-05-17T22:43:31.158Z,16.17
2018-05-17T22:45:59.380Z,15.50
2018-05-17T22:48:26.835Z,14.00
2018-05-17T22:50:54.277Z,15.23
2018-05-17T22:53:21.714Z,15.17
2018-05-17T22:55:49.170Z,15.60
2018-05-17T22:58:28.636Z,15.23
2018-05-17T23:00:56.071Z,16.17
2018-05-17T23:03:23.527Z,16.43
2018-05-17T23:05:50.967Z,15.35
2018-05-17T23:08:18.418Z,15.77
2018-05-17T23:10:46.615Z,15.20
2018-05-17T23:13:14.151Z,17.37
2018-05-17T23:15:41.514Z,14.83
2018-05-17T23:18:08.963Z,16.20
2018-05-17T23:20:37.206Z,15.97
2018-05-17T23:23:06.147Z,14.50
2018-05-17T23:25:33.585Z,14.70
2018-05-17T23:28:01.801Z,16.97
2018-05-17T23:30:29.243Z,16.20
2018-05-17T23:32:56.695Z,15.93
2018-05-17T23:35:24.131Z,13.90
2018-05-17T23:37:52.342Z,14.40
2018-05-17T23:40:31.466Z,15.00
2018-05-17T23:42:58.919Z,15.90
2018-05-17T23:45:26.366Z,15.10
2018-05-17T23:47:53.798Z,15.67
2018-05-17T23:50:22.006Z,14.97
2018-05-17T23:52:49.444Z,14.30
2018-05-17T23:55:16.897Z,15.07
2018-05-17T23:57:45.103Z,13.90
